createdAt,value
2023-02-05T00:00:45.657Z,93.44
2023-02-05T00:03:12.426Z,93.69
2023-02-05T00:05:39.154Z,93.50
2023-02-05T00:08:05.901Z,93.69
2023-02-05T00:10:32.633Z,93.59
2023-02-05T00:12:59.271Z,94.66
2023-02-05T00:15:25.925Z,94.90
2023-02-05T00:17:52.530Z,94.42
2023-02-05T00:20:19.472Z,94.17
2023-02-05T00:22:46.107Z,93.65
2023-02-05T00:25:12.768Z,94.10
2023-02-05T00:27:39.412Z,93.59
2023-02-05T00:30:06.686Z,93.80
2023-02-05T00:32:33.391Z,93.68
2023-02-05T00:35:00.078Z,93.36
2023-02-05T00:37:26.723Z,93.68
2023-02-05T00:39:53.404Z,93.86
2023-02-05T00:42:20.116Z,94.17
2023-02-05T00:44:46.857Z,94.11
2023-02-05T00:47:13.504Z,93.88
2023-02-05T00:49:40.123Z,93.48
2023-02-05T00:52:06.761Z,93.44
2023-02-05T00:54:33.415Z,93.37
2023-02-05T00:57:00.101Z,93.52
2023-02-05T00:59:26.863Z,93.77
2023-02-05T01:01:53.512Z,94.01
2023-02-05T01:04:20.111Z,94.93
2023-02-05T01:06:46.732Z,95.58
2023-02-05T01:09:13.349Z,96.33
2023-02-05T01:11:40.091Z,95.89
2023-02-05T01:14:06.725Z,95.49
2023-02-05T01:16:33.448Z,95.77
2023-02-05T01:19:00.101Z,97.40
2023-02-05T01:21:26.704Z,97.45
2023-02-05T01:23:54.623Z,96.89
2023-02-05T01:26:21.331Z,96.95
2023-02-05T01:28:48.631Z,96.37
2023-02-05T01:31:16.200Z,95.93
2023-02-05T01:33:43.081Z,95.48
2023-02-05T01:36:09.909Z,95.46
2023-02-05T01:38:36.520Z,94.84
2023-02-05T01:41:03.314Z,95.37
2023-02-05T01:43:29.978Z,95.84
2023-02-05T01:46:17.004Z,95.95
2023-02-05T01:48:48.819Z,96.10
2023-02-05T01:51:16.406Z,96.08
2023-02-05T01:53:44.646Z,95.85
2023-02-05T01:56:17.086Z,96.00
2023-02-05T01:59:09.564Z,95.23
2023-02-05T02:01:38.794Z,95.43
2023-02-05T02:04:06.050Z,94.96
2023-02-05T02:06:34.659Z,94.98
2023-02-05T02:09:02.942Z,95.30
2023-02-05T02:11:33.257Z,95.02
2023-02-05T02:14:06.456Z,95.02
2023-02-05T02:16:35.448Z,95.30
2023-02-05T02:19:08.300Z,95.70
2023-02-05T02:21:47.567Z,95.81
2023-02-05T02:24:29.288Z,96.36
2023-02-05T02:27:01.857Z,96.76
2023-02-05T02:29:54.590Z,96.80
2023-02-05T02:32:27.144Z,97.49
2023-02-05T02:35:05.884Z,97.84
2023-02-05T02:37:54.273Z,98.20
2023-02-05T02:40:28.741Z,97.85
2023-02-05T02:43:05.133Z,97.79
2023-02-05T02:45:35.688Z,97.26
2023-02-05T02:48:06.721Z,97.00
2023-02-05T02:50:41.705Z,97.17
2023-02-05T02:53:19.289Z,97.34
2023-02-05T02:55:49.159Z,97.58
2023-02-05T02:58:22.203Z,98.07
2023-02-05T03:00:49.411Z,97.11
2023-02-05T03:03:19.879Z,97.34
2023-02-05T03:05:49.137Z,97.79
2023-02-05T03:08:25.000Z,97.32
2023-02-05T03:11:14.013Z,96.66
2023-02-05T03:13:42.800Z,96.27
2023-02-05T03:16:09.952Z,96.19
2023-02-05T03:18:37.943Z,96.05
2023-02-05T03:21:12.740Z,95.90
2023-02-05T03:23:39.636Z,95.81
2023-02-05T03:26:26.559Z,95.63
2023-02-05T03:28:54.055Z,95.90
2023-02-05T03:31:28.868Z,95.88
2023-02-05T03:34:04.460Z,95.93
2023-02-05T03:36:42.604Z,95.45
2023-02-05T03:39:33.159Z,95.77
2023-02-05T03:42:29.595Z,95.63
2023-02-05T03:45:08.374Z,96.51
2023-02-05T03:48:05.272Z,95.72
2023-02-05T03:50:48.108Z,95.73
2023-02-05T03:53:24.413Z,95.81
2023-02-05T03:55:59.972Z,95.88
2023-02-05T03:58:38.539Z,95.85
2023-02-05T04:01:06.902Z,95.66
2023-02-05T04:03:33.673Z,95.51
2023-02-05T04:06:00.419Z,95.74
2023-02-05T04:08:27.078Z,95.27
2023-02-05T04:10:53.708Z,95.62
2023-02-05T04:13:20.548Z,95.44
2023-02-05T04:15:49.638Z,95.66
2023-02-05T04:18:16.655Z,95.56
2023-02-05T04:20:43.436Z,96.10
2023-02-05T04:23:10.310Z,96.44
2023-02-05T04:25:38.557Z,96.88
2023-02-05T04:28:05.788Z,97.11
2023-02-05T04:30:33.237Z,97.29
2023-02-05T04:33:00.114Z,97.24
2023-02-05T04:35:26.789Z,97.82
2023-02-05T04:37:53.539Z,97.94
2023-02-05T04:40:20.188Z,97.90
2023-02-05T04:42:46.815Z,99.11
2023-02-05T04:45:13.480Z,99.15
2023-02-05T04:47:40.188Z,98.21
2023-02-05T04:50:06.887Z,98.41
2023-02-05T04:52:33.580Z,98.76
2023-02-05T04:55:00.238Z,99.55
2023-02-05T04:57:26.846Z,99.43
2023-02-05T04:59:53.441Z,99.71
2023-02-05T05:02:20.085Z,99.09
2023-02-05T05:04:46.725Z,99.74
2023-02-05T05:07:13.439Z,99.42
2023-02-05T05:09:40.094Z,100.00
2023-02-05T05:12:07.080Z,100.00
2023-02-05T05:14:33.694Z,100.00
2023-02-05T05:17:00.425Z,100.00
2023-02-05T05:19:27.112Z,100.00
2023-02-05T05:21:53.716Z,100.00
2023-02-05T05:24:20.384Z,100.00
2023-02-05T05:26:47.062Z,100.00
2023-02-05T05:29:14.259Z,100.00
2023-02-05T05:31:41.694Z,100.00
2023-02-05T05:34:08.472Z,100.00
2023-02-05T05:36:35.149Z,100.00
2023-02-05T05:39:21.709Z,100.00
2023-02-05T05:42:06.679Z,100.00
2023-02-05T05:44:33.286Z,100.00
2023-02-05T05:46:59.914Z,100.00
2023-02-05T05:49:26.514Z,100.00
2023-02-05T05:51:53.246Z,100.00
2023-02-05T05:54:19.983Z,100.00
2023-02-05T05:56:46.816Z,100.00
2023-02-05T05:59:13.533Z,100.00
2023-02-05T06:01:40.206Z,100.00
2023-02-05T06:04:06.946Z,100.00
2023-02-05T06:06:33.910Z,100.00
2023-02-05T06:09:00.820Z,100.00
2023-02-05T06:11:27.503Z,100.00
2023-02-05T06:13:54.252Z,100.00
2023-02-05T06:16:20.895Z,99.99
2023-02-05T06:18:47.783Z,99.79
2023-02-05T06:21:14.576Z,99.66
2023-02-05T06:23:41.202Z,100.00
2023-02-05T06:26:07.907Z,100.00
2023-02-05T06:28:34.645Z,100.00
2023-02-05T06:31:01.389Z,100.00
2023-02-05T06:33:28.094Z,100.00
2023-02-05T06:35:54.754Z,100.00
2023-02-05T06:38:21.520Z,99.48
2023-02-05T06:40:48.630Z,99.50
2023-02-05T06:43:15.370Z,99.31
2023-02-05T06:45:41.994Z,99.54
2023-02-05T06:48:08.623Z,100.00
2023-02-05T06:50:35.257Z,99.72
2023-02-05T06:53:02.071Z,100.00
2023-02-05T06:55:28.766Z,99.61
2023-02-05T06:57:55.405Z,99.41
2023-02-05T07:00:22.114Z,99.24
2023-02-05T07:02:48.776Z,99.04
2023-02-05T07:05:15.585Z,98.73
2023-02-05T07:07:42.227Z,99.27
2023-02-05T07:10:09.112Z,99.37
2023-02-05T07:12:35.766Z,99.14
2023-02-05T07:15:02.346Z,99.07
2023-02-05T07:17:29.033Z,98.94
2023-02-05T07:19:55.732Z,98.81
2023-02-05T07:22:22.459Z,98.95
2023-02-05T07:24:49.110Z,98.98
2023-02-05T07:27:15.827Z,98.84
2023-02-05T07:29:42.449Z,98.97
2023-02-05T07:32:09.216Z,98.94
2023-02-05T07:34:35.873Z,99.54
2023-02-05T07:37:02.605Z,99.14
2023-02-05T07:39:29.367Z,99.39
2023-02-05T07:41:56.101Z,99.18
2023-02-05T07:44:22.732Z,98.95
2023-02-05T07:46:49.376Z,99.08
2023-02-05T07:49:16.260Z,98.98
2023-02-05T07:51:43.011Z,99.02
2023-02-05T07:54:11.035Z,98.91
2023-02-05T07:56:37.624Z,99.13
2023-02-05T07:59:04.638Z,98.96
2023-02-05T08:01:32.022Z,99.16
2023-02-05T08:03:58.747Z,99.25
2023-02-05T08:06:25.825Z,98.75
2023-02-05T08:08:52.655Z,98.76
2023-02-05T08:11:19.660Z,98.72
2023-02-05T08:13:46.516Z,98.55
2023-02-05T08:16:15.788Z,98.48
2023-02-05T08:18:43.515Z,98.71
2023-02-05T08:21:10.191Z,98.04
2023-02-05T08:23:37.076Z,97.71
2023-02-05T08:26:03.947Z,98.11
2023-02-05T08:28:30.645Z,98.67
2023-02-05T08:30:57.632Z,98.96
2023-02-05T08:33:24.737Z,98.67
2023-02-05T08:35:51.428Z,98.92
2023-02-05T08:38:18.161Z,98.77
2023-02-05T08:40:44.823Z,99.49
2023-02-05T08:43:11.521Z,99.11
2023-02-05T08:45:38.351Z,98.84
2023-02-05T08:48:05.214Z,98.61
2023-02-05T08:50:31.862Z,98.46
2023-02-05T08:52:58.472Z,98.03
2023-02-05T08:55:25.044Z,98.23
2023-02-05T08:57:51.999Z,98.79
2023-02-05T09:00:19.761Z,98.26
2023-02-05T09:02:46.449Z,97.85
2023-02-05T09:05:13.041Z,97.74
2023-02-05T09:07:40.822Z,97.80
2023-02-05T09:10:10.225Z,97.27
2023-02-05T09:12:36.721Z,96.33
2023-02-05T09:15:03.912Z,96.83
2023-02-05T09:17:30.686Z,96.64
2023-02-05T09:19:57.471Z,97.05
2023-02-05T09:22:24.076Z,97.50
2023-02-05T09:24:50.793Z,97.73
2023-02-05T09:27:17.410Z,98.29
2023-02-05T09:29:44.205Z,99.12
2023-02-05T09:32:10.779Z,98.98
2023-02-05T09:34:37.402Z,99.24
2023-02-05T09:37:03.993Z,99.26
2023-02-05T09:40:12.353Z,100.00
2023-02-05T09:42:40.653Z,100.00
2023-02-05T09:45:39.691Z,99.51
2023-02-05T09:48:24.234Z,100.00
2023-02-05T09:50:50.987Z,100.00
2023-02-05T09:53:21.556Z,99.77
2023-02-05T09:55:49.619Z,99.06
2023-02-05T09:58:31.126Z,98.68
2023-02-05T10:01:03.958Z,98.23
2023-02-05T10:03:59.994Z,98.88
2023-02-05T10:06:40.192Z,98.36
2023-02-05T10:09:25.118Z,98.70
2023-02-05T10:11:59.281Z,98.85
2023-02-05T10:14:57.704Z,98.67
2023-02-05T10:17:31.212Z,98.48
2023-02-05T10:20:43.447Z,98.25
2023-02-05T10:23:34.199Z,98.40
2023-02-05T10:26:14.992Z,97.82
2023-02-05T10:28:56.791Z,97.81
2023-02-05T10:32:01.328Z,97.94
2023-02-05T10:34:57.256Z,97.70
2023-02-05T10:37:35.705Z,98.01
2023-02-05T10:40:11.958Z,97.47
2023-02-05T10:42:45.565Z,97.64
2023-02-05T10:45:12.152Z,97.14
2023-02-05T10:47:55.153Z,96.88
2023-02-05T10:50:41.982Z,96.98
2023-02-05T10:53:08.690Z,96.46
2023-02-05T10:55:37.026Z,95.80
2023-02-05T10:58:20.209Z,95.70
2023-02-05T11:00:46.919Z,96.02
2023-02-05T11:03:18.096Z,96.15
2023-02-05T11:05:47.207Z,95.70
2023-02-05T11:08:32.314Z,95.62
2023-02-05T11:10:59.162Z,95.88
2023-02-05T11:13:28.128Z,96.00
2023-02-05T11:15:56.644Z,95.61
2023-02-05T11:18:27.603Z,95.54
2023-02-05T11:21:03.020Z,95.42
2023-02-05T11:23:32.219Z,95.29
2023-02-05T11:26:01.152Z,95.30
2023-02-05T11:28:31.856Z,94.92
2023-02-05T11:31:21.184Z,95.18
2023-02-05T11:33:48.868Z,96.00
2023-02-05T11:36:25.613Z,96.51
2023-02-05T11:38:57.228Z,95.81
2023-02-05T11:41:28.338Z,96.30
2023-02-05T11:43:56.556Z,96.31
2023-02-05T11:46:26.279Z,96.78
2023-02-05T11:48:59.966Z,96.78
2023-02-05T11:51:29.547Z,97.16
2023-02-05T11:53:59.746Z,96.48
2023-02-05T11:56:26.837Z,96.65
2023-02-05T11:59:20.958Z,97.26
2023-02-05T12:01:48.271Z,96.81
2023-02-05T12:04:19.197Z,96.74
2023-02-05T12:07:08.746Z,96.61
2023-02-05T12:09:35.382Z,96.40
2023-02-05T12:12:26.788Z,96.64
2023-02-05T12:15:19.685Z,96.32
2023-02-05T12:18:23.829Z,96.85
2023-02-05T12:21:06.760Z,97.58
2023-02-05T12:23:55.761Z,97.07
2023-02-05T12:26:41.569Z,96.83
2023-02-05T12:29:56.215Z,97.04
2023-02-05T12:32:48.216Z,96.82
2023-02-05T12:35:26.848Z,97.03
2023-02-05T12:37:53.409Z,97.03
2023-02-05T12:40:36.337Z,97.39
2023-02-05T12:43:35.363Z,96.99
2023-02-05T12:46:20.963Z,97.02
2023-02-05T12:49:18.529Z,96.80
2023-02-05T12:52:06.712Z,97.90
2023-02-05T12:55:00.889Z,98.68
2023-02-05T12:57:52.095Z,99.39
2023-02-05T13:00:27.725Z,98.96
2023-02-05T13:03:51.037Z,98.87
2023-02-05T13:06:26.949Z,98.69
2023-02-05T13:08:58.583Z,98.32
2023-02-05T13:11:37.018Z,98.09
2023-02-05T13:14:13.892Z,99.50
2023-02-05T13:16:44.999Z,99.69
2023-02-05T13:19:35.012Z,99.21
2023-02-05T13:22:30.952Z,98.64
2023-02-05T13:25:27.327Z,98.39
2023-02-05T13:28:32.773Z,98.55
2023-02-05T13:31:03.301Z,98.22
2023-02-05T13:33:30.508Z,98.36
2023-02-05T13:36:28.972Z,98.50
2023-02-05T13:39:10.841Z,98.62
2023-02-05T13:42:33.201Z,98.88
2023-02-05T13:45:11.297Z,98.78
2023-02-05T13:47:52.166Z,98.44
2023-02-05T13:50:33.783Z,99.01
2023-02-05T13:53:23.940Z,98.66
2023-02-05T13:56:02.585Z,99.53
2023-02-05T13:58:50.279Z,99.55
2023-02-05T14:01:29.454Z,100.00
2023-02-05T14:04:02.033Z,100.00
2023-02-05T14:06:32.169Z,100.00
2023-02-05T14:09:08.601Z,100.00
2023-02-05T14:11:57.014Z,99.77
2023-02-05T14:14:27.430Z,99.71
2023-02-05T14:16:55.453Z,99.51
2023-02-05T14:19:25.691Z,99.29
2023-02-05T14:21:59.961Z,99.10
2023-02-05T14:24:39.165Z,99.29
2023-02-05T14:27:30.568Z,100.00
2023-02-05T14:29:59.589Z,99.62
2023-02-05T14:32:26.225Z,99.54
2023-02-05T14:35:30.356Z,99.78
2023-02-05T14:38:02.780Z,99.61
2023-02-05T14:40:37.858Z,99.80
2023-02-05T14:43:27.298Z,99.73
2023-02-05T14:45:55.059Z,99.65
2023-02-05T14:48:27.310Z,99.29
2023-02-05T14:51:14.139Z,99.09
2023-02-05T14:53:52.705Z,98.85
2023-02-05T14:56:33.872Z,98.46
2023-02-05T14:59:19.015Z,98.09
2023-02-05T15:01:50.407Z,98.05
2023-02-05T15:04:32.070Z,97.62
2023-02-05T15:07:07.240Z,97.62
2023-02-05T15:09:42.440Z,97.48
2023-02-05T15:12:26.059Z,97.44
2023-02-05T15:14:54.393Z,97.39
2023-02-05T15:17:30.054Z,97.53
2023-02-05T15:20:20.211Z,97.82
2023-02-05T15:22:54.460Z,97.90
2023-02-05T15:25:37.241Z,98.34
2023-02-05T15:28:21.934Z,97.76
2023-02-05T15:30:57.973Z,97.80
2023-02-05T15:33:50.076Z,97.00
2023-02-05T15:36:23.042Z,96.86
2023-02-05T15:39:02.674Z,96.75
2023-02-05T15:41:33.550Z,96.60
2023-02-05T15:44:02.838Z,96.89
2023-02-05T15:46:32.713Z,97.18
2023-02-05T15:49:00.864Z,97.06
2023-02-05T15:51:34.349Z,97.46
2023-02-05T15:54:04.222Z,97.14
2023-02-05T15:56:42.316Z,97.03
2023-02-05T15:59:17.261Z,97.35
2023-02-05T16:01:48.209Z,97.51
2023-02-05T16:04:34.062Z,97.62
2023-02-05T16:07:01.105Z,98.70
2023-02-05T16:09:30.268Z,98.81
2023-02-05T16:11:57.559Z,99.38
2023-02-05T16:14:26.568Z,98.91
2023-02-05T16:17:05.936Z,99.00
2023-02-05T16:19:35.656Z,100.00
2023-02-05T16:22:17.615Z,99.49
2023-02-05T16:24:48.924Z,99.32
2023-02-05T16:27:21.451Z,100.00
2023-02-05T16:29:56.706Z,100.00
2023-02-05T16:32:31.840Z,100.00
2023-02-05T16:35:02.426Z,100.00
2023-02-05T16:37:31.271Z,100.00
2023-02-05T16:40:01.945Z,100.00
2023-02-05T16:42:31.217Z,100.00
2023-02-05T16:45:04.006Z,100.00
2023-02-05T16:47:30.703Z,100.00
2023-02-05T16:49:57.289Z,100.00
2023-02-05T16:52:28.330Z,100.00
2023-02-05T16:54:55.305Z,100.00
2023-02-05T16:57:37.712Z,100.00
2023-02-05T17:00:27.786Z,100.00
2023-02-05T17:03:16.214Z,100.00
2023-02-05T17:05:42.873Z,100.00
2023-02-05T17:08:12.462Z,100.00
2023-02-05T17:10:50.623Z,100.00
2023-02-05T17:13:32.344Z,99.98
2023-02-05T17:16:31.717Z,100.00
2023-02-05T17:19:00.928Z,100.00
2023-02-05T17:21:35.754Z,100.00
2023-02-05T17:24:06.028Z,100.00
2023-02-05T17:26:35.368Z,100.00
2023-02-05T17:29:04.155Z,100.00
2023-02-05T17:31:37.380Z,100.00
2023-02-05T17:34:04.716Z,100.00
2023-02-05T17:36:31.497Z,100.00
2023-02-05T17:38:58.163Z,100.00
2023-02-05T17:41:51.202Z,100.00
2023-02-05T17:44:17.879Z,100.00
2023-02-05T17:46:44.805Z,100.00
2023-02-05T17:49:11.634Z,100.00
2023-02-05T17:51:47.608Z,100.00
2023-02-05T17:54:16.392Z,100.00
2023-02-05T17:56:44.762Z,100.00
2023-02-05T17:59:13.784Z,100.00
2023-02-05T18:01:40.712Z,100.00
2023-02-05T18:04:07.677Z,100.00
2023-02-05T18:06:36.002Z,100.00
2023-02-05T18:09:03.281Z,100.00
2023-02-05T18:11:29.887Z,100.00
2023-02-05T18:13:56.699Z,100.00
2023-02-05T18:16:23.690Z,100.00
2023-02-05T18:18:50.487Z,100.00
2023-02-05T18:21:17.405Z,100.00
2023-02-05T18:23:44.234Z,100.00
2023-02-05T18:26:10.958Z,100.00
2023-02-05T18:28:37.591Z,100.00
2023-02-05T18:31:07.286Z,100.00
2023-02-05T18:33:34.356Z,100.00
2023-02-05T18:36:02.866Z,100.00
2023-02-05T18:38:32.839Z,100.00
2023-02-05T18:41:10.081Z,100.00
2023-02-05T18:43:37.342Z,100.00
2023-02-05T18:46:09.146Z,100.00
2023-02-05T18:48:36.246Z,100.00
2023-02-05T18:51:07.913Z,100.00
2023-02-05T18:53:35.497Z,100.00
2023-02-05T18:56:08.132Z,100.00
2023-02-05T18:58:35.965Z,100.00
2023-02-05T19:01:18.676Z,100.00
2023-02-05T19:03:45.989Z,100.00
2023-02-05T19:06:17.432Z,100.00
2023-02-05T19:08:44.231Z,100.00
2023-02-05T19:11:22.536Z,100.00
2023-02-05T19:13:56.274Z,100.00
2023-02-05T19:16:23.965Z,100.00
2023-02-05T19:18:50.689Z,100.00
2023-02-05T19:21:20.392Z,100.00
2023-02-05T19:23:50.962Z,100.00
2023-02-05T19:26:21.768Z,100.00
2023-02-05T19:28:56.693Z,100.00
2023-02-05T19:31:26.128Z,100.00
2023-02-05T19:33:53.150Z,100.00
2023-02-05T19:36:23.181Z,100.00
2023-02-05T19:38:49.949Z,100.00
2023-02-05T19:41:19.617Z,100.00
2023-02-05T19:44:02.298Z,100.00
2023-02-05T19:46:31.856Z,100.00
2023-02-05T19:49:04.238Z,100.00
2023-02-05T19:51:31.111Z,100.00
2023-02-05T19:53:59.417Z,100.00
2023-02-05T19:56:26.574Z,100.00
2023-02-05T19:58:55.128Z,100.00
2023-02-05T20:01:27.992Z,100.00
2023-02-05T20:03:57.453Z,100.00
2023-02-05T20:06:28.305Z,100.00
2023-02-05T20:08:55.839Z,100.00
2023-02-05T20:11:22.790Z,100.00
2023-02-05T20:13:49.657Z,100.00
2023-02-05T20:16:20.069Z,100.00
2023-02-05T20:18:47.955Z,100.00
2023-02-05T20:21:18.884Z,100.00
2023-02-05T20:23:46.944Z,100.00
2023-02-05T20:26:14.570Z,100.00
2023-02-05T20:29:00.603Z,100.00
2023-02-05T20:31:41.486Z,100.00
2023-02-05T20:34:17.941Z,100.00
2023-02-05T20:36:46.957Z,100.00
2023-02-05T20:39:14.119Z,100.00
2023-02-05T20:41:40.850Z,100.00
2023-02-05T20:44:07.507Z,100.00
2023-02-05T20:46:34.225Z,100.00
2023-02-05T20:49:01.359Z,100.00
2023-02-05T20:51:28.189Z,100.00
2023-02-05T20:53:59.551Z,100.00
2023-02-05T20:56:28.641Z,100.00
2023-02-05T20:58:59.043Z,100.00
2023-02-05T21:01:27.381Z,100.00
2023-02-05T21:03:57.865Z,100.00
2023-02-05T21:06:25.183Z,100.00
2023-02-05T21:08:52.937Z,100.00
2023-02-05T21:11:20.908Z,100.00
2023-02-05T21:13:48.932Z,100.00
2023-02-05T21:16:17.712Z,100.00
2023-02-05T21:18:45.845Z,100.00
2023-02-05T21:21:15.242Z,100.00
2023-02-05T21:23:42.325Z,100.00
2023-02-05T21:26:17.643Z,100.00
2023-02-05T21:28:44.355Z,100.00
2023-02-05T21:31:11.199Z,100.00
2023-02-05T21:33:37.952Z,100.00
2023-02-05T21:36:06.275Z,100.00
2023-02-05T21:38:39.949Z,100.00
2023-02-05T21:41:18.868Z,100.00
2023-02-05T21:43:50.605Z,100.00
2023-02-05T21:46:17.620Z,100.00
2023-02-05T21:48:48.357Z,100.00
2023-02-05T21:51:16.881Z,100.00
2023-02-05T21:53:43.983Z,100.00
2023-02-05T21:56:14.732Z,100.00
2023-02-05T21:58:41.612Z,100.00
2023-02-05T22:01:19.723Z,100.00
2023-02-05T22:03:52.095Z,100.00
2023-02-05T22:06:20.483Z,100.00
2023-02-05T22:08:48.308Z,100.00
2023-02-05T22:11:15.591Z,100.00
2023-02-05T22:13:45.198Z,100.00
2023-02-05T22:16:14.987Z,100.00
2023-02-05T22:18:42.207Z,100.00
2023-02-05T22:21:15.013Z,100.00
2023-02-05T22:23:42.844Z,100.00
2023-02-05T22:26:11.378Z,100.00
2023-02-05T22:28:38.486Z,100.00
2023-02-05T22:31:11.621Z,100.00
2023-02-05T22:33:40.129Z,100.00
2023-02-05T22:36:08.786Z,100.00
2023-02-05T22:38:37.726Z,100.00
2023-02-05T22:41:20.516Z,100.00
2023-02-05T22:43:47.602Z,100.00
2023-02-05T22:46:19.779Z,100.00
2023-02-05T22:48:48.267Z,100.00
2023-02-05T22:51:21.373Z,100.00
2023-02-05T22:53:48.961Z,100.00
2023-02-05T22:56:17.319Z,100.00
2023-02-05T22:58:46.786Z,100.00
2023-02-05T23:01:25.735Z,100.00
2023-02-05T23:03:52.641Z,100.00
2023-02-05T23:06:23.501Z,100.00
2023-02-05T23:09:01.547Z,100.00
2023-02-05T23:11:29.817Z,100.00
2023-02-05T23:13:58.309Z,100.00
2023-02-05T23:16:27.708Z,100.00
2023-02-05T23:19:02.111Z,100.00
2023-02-05T23:21:30.468Z,100.00
2023-02-05T23:23:57.580Z,100.00
2023-02-05T23:26:26.925Z,100.00
2023-02-05T23:28:54.362Z,100.00
2023-02-05T23:31:21.940Z,100.00
2023-02-05T23:33:48.635Z,100.00
2023-02-05T23:36:15.349Z,100.00
2023-02-05T23:38:42.008Z,100.00
2023-02-05T23:41:09.375Z,100.00
2023-02-05T23:43:36.939Z,100.00
2023-02-05T23:46:05.256Z,100.00
2023-02-05T23:48:32.027Z,100.00
2023-02-05T23:50:58.732Z,100.00
2023-02-05T23:53:26.214Z,100.00
2023-02-05T23:55:54.114Z,100.00
2023-02-05T23:58:26.090Z,100.00
